Time;durP1;ratioP1;P1;durP2;ratioP2;P2;SDS_P1;SDS_P2;PMS_P1;PMS_P2;Temp;Humidity;BMP_temperature;BMP_pressure;BME280_temperature;BME280_humidity;BME280_pressure;Samples;Min_cycle;Max_cycle;Signal;HPM_P1;HPM_P2
2021/09/24 00:01:59;;;;;;;9.32;4.63;;;;;;;14.01;82.31;98009.47;4961653;28;20424;-58
2021/09/24 00:04:27;;;;;;;9.32;4.78;;;;;;;14.15;80.67;98011.34;4963232;28;20061;-59
2021/09/24 00:06:53;;;;;;;7.93;4.60;;;;;;;14.24;80.51;98007.34;4961822;28;20046;-58
2021/09/24 00:09:19;;;;;;;6.82;4.53;;;;;;;13.76;82.42;97999.44;4962521;28;20030;-57
2021/09/24 00:11:44;;;;;;;10.43;5.15;;;;;;;14.14;80.87;97998.31;4961441;28;20154;-60
2021/09/24 00:14:10;;;;;;;8.35;4.70;;;;;;;13.85;81.95;97993.72;4962993;28;20038;-58
2021/09/24 00:16:36;;;;;;;8.15;4.68;;;;;;;13.48;83.61;98000.09;4961999;28;20046;-58
2021/09/24 00:19:01;;;;;;;10.05;5.22;;;;;;;13.33;84.05;98006.16;4962901;28;20104;-58
2021/09/24 00:21:27;;;;;;;7.95;4.72;;;;;;;13.19;85.26;98010.28;4944009;28;20031;-58
2021/09/24 00:23:52;;;;;;;8.75;4.85;;;;;;;13.54;84.08;98006.78;4962967;28;20392;-58
2021/09/24 00:26:17;;;;;;;8.77;5.18;;;;;;;13.40;83.99;98005.75;4961921;28;20266;-58
2021/09/24 00:28:43;;;;;;;9.70;5.38;;;;;;;13.19;84.96;98002.41;4963055;28;20033;-58
2021/09/24 00:31:09;;;;;;;9.63;5.53;;;;;;;12.98;86.23;98011.38;4960199;28;20057;-59
2021/09/24 00:33:34;;;;;;;12.45;4.78;;;;;;;13.37;84.19;98002.44;4944040;28;20154;-58
2021/09/24 00:36:00;;;;;;;8.50;4.80;;;;;;;13.87;82.49;98004.13;4960775;28;20535;-57
2021/09/24 00:38:26;;;;;;;9.38;5.13;;;;;;;13.61;82.74;98011.59;4961324;28;20035;-57
2021/09/24 00:40:51;;;;;;;8.68;5.07;;;;;;;13.30;83.80;98004.47;4960401;28;20035;-57
2021/09/24 00:43:18;;;;;;;9.38;5.47;;;;;;;12.95;85.29;97990.59;4961297;28;20041;-58
2021/09/24 00:45:44;;;;;;;11.45;5.47;;;;;;;13.27;83.70;98000.25;4961025;28;20030;-58
2021/09/24 00:48:09;;;;;;;11.68;5.10;;;;;;;12.87;86.27;98009.31;4961200;28;20089;-59
2021/09/24 00:50:36;;;;;;;10.50;5.60;;;;;;;13.04;85.11;98000.59;4960028;28;20039;-57
2021/09/24 00:53:01;;;;;;;11.10;5.43;;;;;;;12.73;86.73;97996.88;4960596;28;20424;-57
2021/09/24 00:55:28;;;;;;;13.70;5.53;;;;;;;12.77;86.07;97998.44;4960841;28;20049;-58
2021/09/24 00:57:53;;;;;;;8.93;5.35;;;;;;;12.56;87.41;97994.28;4961093;28;20085;-58
2021/09/24 01:00:19;;;;;;;9.82;5.90;;;;;;;12.64;86.38;97999.97;4961500;28;20026;-57
2021/09/24 01:02:45;;;;;;;10.80;5.22;;;;;;;12.87;85.23;97999.66;4964583;28;20029;-58
2021/09/24 01:05:12;;;;;;;8.95;4.95;;;;;;;13.09;84.50;97999.44;4964664;28;20018;-58
2021/09/24 01:07:40;;;;;;;10.15;5.32;;;;;;;12.84;85.42;97999.81;4964178;28;20033;-59
2021/09/24 01:10:06;;;;;;;8.40;5.13;;;;;;;13.01;84.83;98003.34;4963986;28;20448;-57
2021/09/24 01:12:34;;;;;;;9.68;5.70;;;;;;;12.80;86.05;98003.53;4964695;28;20035;-57
2021/09/24 01:15:04;;;;;;;10.50;5.53;;;;;;;12.99;85.20;98005.22;4964825;28;20152;-58
2021/09/24 01:17:29;;;;;;;10.40;5.45;;;;;;;12.89;85.46;98000.44;4963649;28;20567;-58
2021/09/24 01:19:55;;;;;;;9.82;5.50;;;;;;;12.92;86.06;98002.03;4964666;28;20030;-58
2021/09/24 01:22:20;;;;;;;14.80;5.50;;;;;;;12.83;86.22;98000.75;4963299;28;20115;-59
2021/09/24 01:24:46;;;;;;;11.00;5.43;;;;;;;12.72;86.44;97996.06;4944852;28;20023;-57
2021/09/24 01:27:11;;;;;;;9.07;5.47;;;;;;;13.05;85.42;97992.66;4963832;28;20043;-58
2021/09/24 01:29:36;;;;;;;9.05;5.43;;;;;;;13.24;84.97;97991.72;4942015;28;20081;-58
2021/09/24 01:32:03;;;;;;;13.18;5.05;;;;;;;13.00;86.30;97984.19;4961815;28;20043;-57
2021/09/24 01:34:28;;;;;;;8.52;4.85;;;;;;;13.00;85.93;97992.03;4962996;28;20045;-59
2021/09/24 01:36:53;;;;;;;8.48;4.90;;;;;;;12.64;86.84;97981.66;4962339;28;20046;-59
2021/09/24 01:39:19;;;;;;;9.43;5.15;;;;;;;12.58;88.33;97971.50;4963381;28;20085;-59
2021/09/24 01:41:46;;;;;;;8.40;4.60;;;;;;;12.63;88.30;97980.81;4961927;28;20042;-59
2021/09/24 01:44:12;;;;;;;6.63;4.70;;;;;;;12.55;88.13;97980.31;4963341;28;20905;-59
2021/09/24 01:46:39;;;;;;;7.78;5.25;;;;;;;12.40;88.53;97976.69;4962280;28;20050;-58
2021/09/24 01:49:06;;;;;;;7.53;4.60;;;;;;;11.82;89.58;97982.03;4963110;28;20031;-58
2021/09/24 01:51:33;;;;;;;7.57;5.10;;;;;;;11.52;88.37;97979.91;4961812;28;20122;-58
2021/09/24 01:53:58;;;;;;;8.55;4.95;;;;;;;11.52;89.12;97975.56;4963004;28;20037;-60
2021/09/24 01:56:24;;;;;;;8.13;4.70;;;;;;;11.58;88.88;97982.28;4962251;28;20050;-59
2021/09/24 01:58:49;;;;;;;7.20;4.80;;;;;;;11.59;88.74;97976.13;4963163;28;20042;-57
2021/09/24 02:01:14;;;;;;;10.35;4.82;;;;;;;11.79;88.18;97974.38;4961634;28;20763;-58
2021/09/24 02:03:40;;;;;;;9.35;5.35;;;;;;;11.62;89.16;97962.09;4962878;28;20254;-58
2021/09/24 02:06:05;;;;;;;7.45;4.53;;;;;;;12.22;87.41;97965.38;4962289;28;20047;-58
2021/09/24 02:08:30;;;;;;;7.45;4.80;;;;;;;11.98;88.60;97971.75;4962399;28;20041;-58
2021/09/24 02:10:56;;;;;;;7.50;4.78;;;;;;;12.28;86.33;97965.06;4944305;28;20122;-58
2021/09/24 02:13:21;;;;;;;8.07;4.88;;;;;;;11.68;89.14;97970.47;4962660;28;20031;-58
2021/09/24 02:15:46;;;;;;;8.48;5.20;;;;;;;11.43;91.95;97969.88;4962485;28;20062;-58
2021/09/24 02:18:12;;;;;;;10.38;5.05;;;;;;;11.47;90.54;97971.44;4962220;28;20030;-58
2021/09/24 02:20:37;;;;;;;8.20;4.63;;;;;;;11.70;89.86;97967.78;4961366;28;20928;-59
2021/09/24 02:23:03;;;;;;;9.27;5.20;;;;;;;11.52;90.55;97978.19;4962080;28;20141;-57
2021/09/24 02:25:28;;;;;;;7.85;5.10;;;;;;;11.50;90.58;97976.53;4962069;28;20035;-58
2021/09/24 02:27:53;;;;;;;7.55;4.95;;;;;;;11.50;90.50;97981.75;4962205;28;20030;-59
2021/09/24 02:30:19;;;;;;;8.10;5.10;;;;;;;11.47;90.80;97982.75;4961642;28;20114;-57
2021/09/24 02:32:44;;;;;;;7.22;4.70;;;;;;;11.85;88.25;97981.91;4945661;28;20644;-58
2021/09/24 02:35:10;;;;;;;8.02;4.63;;;;;;;11.80;88.61;97983.88;4962746;28;20034;-58
2021/09/24 02:37:35;;;;;;;9.57;4.70;;;;;;;12.06;87.01;97985.34;4951196;28;20102;-58
2021/09/24 02:40:01;;;;;;;9.27;4.75;;;;;;;11.66;89.02;97987.97;4945771;28;20026;-58
2021/09/24 02:42:26;;;;;;;8.30;5.20;;;;;;;11.74;89.59;97988.50;4962252;28;20050;-58
2021/09/24 02:44:51;;;;;;;9.23;5.53;;;;;;;11.40;91.19;97993.56;4963569;28;20042;-58
2021/09/24 02:47:17;;;;;;;7.57;4.97;;;;;;;11.56;91.34;97995.41;4962317;28;20125;-58
2021/09/24 02:49:44;;;;;;;8.60;5.28;;;;;;;11.36;90.98;97996.28;4963157;28;20027;-58
2021/09/24 02:52:10;;;;;;;11.40;5.18;;;;;;;11.70;88.95;97994.75;4961714;28;20042;-58
2021/09/24 02:54:35;;;;;;;8.10;4.72;;;;;;;11.60;88.32;97997.84;4963257;28;20033;-58
2021/09/24 02:57:01;;;;;;;7.00;4.50;;;;;;;11.98;87.09;97993.50;4962133;28;20083;-59
2021/09/24 02:59:26;;;;;;;6.65;4.28;;;;;;;11.99;88.52;97991.78;4963240;28;20120;-60
2021/09/24 03:01:54;;;;;;;7.85;4.88;;;;;;;11.60;87.77;97998.72;4944591;28;20528;-58
2021/09/24 03:04:20;;;;;;;7.15;5.03;;;;;;;11.18;90.96;98002.31;4963025;28;20023;-58
2021/09/24 03:06:45;;;;;;;9.75;5.28;;;;;;;11.11;92.23;98006.09;4961377;28;20391;-58
2021/09/24 03:09:10;;;;;;;8.57;4.70;;;;;;;11.46;91.78;98001.09;4963252;28;20069;-60
2021/09/24 03:11:36;;;;;;;7.93;5.15;;;;;;;11.44;90.53;98002.94;4961780;28;20041;-58
2021/09/24 03:14:01;;;;;;;7.68;4.90;;;;;;;11.52;89.90;98009.53;4962692;28;20033;-59
2021/09/24 03:16:26;;;;;;;6.50;4.45;;;;;;;11.37;91.81;98016.25;4962249;28;20065;-59
2021/09/24 03:18:52;;;;;;;10.52;5.60;;;;;;;11.38;89.79;98004.91;4937004;28;20078;-58
2021/09/24 03:21:18;;;;;;;7.88;5.20;;;;;;;11.20;91.07;98010.94;4960958;28;20131;-59
2021/09/24 03:23:44;;;;;;;8.32;4.82;;;;;;;11.61;89.74;98016.06;4961613;28;20818;-58
2021/09/24 03:26:11;;;;;;;8.98;5.32;;;;;;;11.36;89.79;98006.72;4962125;28;20042;-58
2021/09/24 03:28:36;;;;;;;8.80;5.10;;;;;;;11.66;88.27;98013.28;4962032;28;20229;-58
2021/09/24 03:31:02;;;;;;;9.07;5.00;;;;;;;11.53;89.33;98013.81;4961112;28;20134;-58
2021/09/24 03:33:27;;;;;;;9.02;5.25;;;;;;;11.41;89.80;98018.72;4941176;28;20042;-58
2021/09/24 03:35:52;;;;;;;10.70;5.28;;;;;;;11.31;91.42;98016.53;4961734;28;20050;-59
2021/09/24 03:38:18;;;;;;;9.15;5.20;;;;;;;11.34;91.26;98024.25;4944470;28;20032;-57
2021/09/24 03:40:43;;;;;;;8.23;4.93;;;;;;;11.41;91.91;98024.78;4959193;28;20117;-58
2021/09/24 03:43:08;;;;;;;10.48;5.28;;;;;;;11.58;91.08;98021.47;4961934;28;20671;-57
2021/09/24 03:45:34;;;;;;;9.15;5.25;;;;;;;11.67;89.80;98013.22;4943879;28;20027;-58
2021/09/24 03:47:59;;;;;;;8.55;4.60;;;;;;;11.56;90.18;98018.03;4961667;28;20917;-59
2021/09/24 03:50:25;;;;;;;7.20;4.95;;;;;;;11.57;90.92;98015.38;4960645;28;20461;-58
2021/09/24 03:52:52;;;;;;;8.10;4.97;;;;;;;11.38;91.02;98019.72;4961644;28;20630;-58
2021/09/24 03:55:17;;;;;;;7.90;4.80;;;;;;;11.32;91.50;98028.69;4944006;28;20034;-59
2021/09/24 03:57:43;;;;;;;7.05;4.65;;;;;;;11.30;92.13;98032.25;4961720;28;20039;-58
2021/09/24 04:00:09;;;;;;;9.70;5.13;;;;;;;11.34;90.90;98029.47;4959868;28;20057;-57
2021/09/24 04:02:34;;;;;;;9.20;4.50;;;;;;;11.95;88.59;98038.13;4961066;28;20031;-58
2021/09/24 04:04:59;;;;;;;7.25;4.70;;;;;;;12.14;87.80;98036.31;4961685;28;20030;-58
2021/09/24 04:07:25;;;;;;;8.15;5.00;;;;;;;11.84;89.58;98046.41;4960966;28;20181;-58
2021/09/24 04:09:50;;;;;;;9.30;5.57;;;;;;;11.88;90.77;98039.28;4961660;28;20069;-58
2021/09/24 04:12:15;;;;;;;10.43;5.55;;;;;;;11.82;91.53;98045.63;4959814;28;20042;-58
2021/09/24 04:14:41;;;;;;;11.20;5.55;;;;;;;12.05;90.44;98047.22;4961397;28;20030;-59
2021/09/24 04:17:06;;;;;;;9.68;5.50;;;;;;;11.98;90.37;98051.03;4960781;28;20035;-58
2021/09/24 04:19:31;;;;;;;8.52;4.68;;;;;;;12.47;88.16;98053.13;4961312;28;20050;-56
2021/09/24 04:21:57;;;;;;;7.60;5.32;;;;;;;12.55;87.64;98053.59;4960380;28;20039;-57
2021/09/24 04:24:22;;;;;;;8.80;5.22;;;;;;;12.65;87.24;98061.84;4941394;28;20027;-59
2021/09/24 04:26:48;;;;;;;9.65;5.60;;;;;;;12.62;87.62;98056.75;4958387;28;20451;-57
2021/09/24 04:29:13;;;;;;;7.55;4.80;;;;;;;12.65;88.48;98056.63;4942370;28;20027;-57
2021/09/24 04:31:38;;;;;;;11.60;5.13;;;;;;;12.88;86.65;98056.34;4960081;28;20043;-56
2021/09/24 04:34:04;;;;;;;9.38;5.22;;;;;;;13.16;85.23;98052.34;4961037;28;20026;-58
2021/09/24 04:36:29;;;;;;;10.50;4.90;;;;;;;13.15;85.40;98055.88;4963578;28;20118;-57
2021/09/24 04:38:56;;;;;;;8.93;4.53;;;;;;;12.63;87.26;98054.06;4965443;28;20110;-58
2021/09/24 04:41:22;;;;;;;10.13;4.97;;;;;;;12.91;87.38;98053.56;4964301;28;20179;-59
2021/09/24 04:43:47;;;;;;;7.15;4.93;;;;;;;13.15;87.10;98058.50;4965158;28;20697;-57
2021/09/24 04:46:12;;;;;;;10.52;5.40;;;;;;;12.91;86.46;98056.19;4964841;28;20042;-58
2021/09/24 04:48:38;;;;;;;6.68;4.47;;;;;;;13.07;86.83;98064.13;4965115;28;20566;-57
2021/09/24 04:51:03;;;;;;;9.52;4.90;;;;;;;12.93;86.88;98051.72;4963980;28;20094;-57
2021/09/24 04:53:30;;;;;;;6.75;4.55;;;;;;;13.62;84.25;98057.00;4964862;28;20066;-56
2021/09/24 04:55:55;;;;;;;8.82;5.05;;;;;;;13.29;85.05;98055.19;4964486;28;20046;-58
2021/09/24 04:58:20;;;;;;;7.85;4.70;;;;;;;12.83;86.93;98053.09;4947378;28;20030;-59
2021/09/24 05:00:48;;;;;;;11.40;5.68;;;;;;;12.91;87.22;98058.81;4964024;28;20035;-58
2021/09/24 05:03:13;;;;;;;7.95;5.20;;;;;;;12.28;90.02;98058.38;4964798;28;20500;-56
2021/09/24 05:05:41;;;;;;;11.15;6.05;;;;;;;12.15;90.88;98058.09;4947223;28;20046;-57
2021/09/24 05:08:07;;;;;;;7.88;5.15;;;;;;;12.93;88.13;98054.31;4964831;28;20122;-56
2021/09/24 05:10:33;;;;;;;9.38;5.57;;;;;;;12.77;88.36;98058.63;4963654;28;20146;-57
2021/09/24 05:12:58;;;;;;;9.48;5.40;;;;;;;12.88;88.08;98058.09;4963944;28;20035;-56
2021/09/24 05:15:23;;;;;;;10.32;5.63;;;;;;;12.57;89.27;98058.75;4964499;28;20726;-56
2021/09/24 05:17:49;;;;;;;7.63;4.93;;;;;;;12.92;89.00;98065.75;4964345;28;20029;-57
2021/09/24 05:20:14;;;;;;;7.60;4.47;;;;;;;13.64;85.67;98063.88;4963749;28;20030;-56
2021/09/24 05:22:40;;;;;;;6.93;4.88;;;;;;;13.59;85.31;98068.50;4964069;28;20027;-57
2021/09/24 05:25:09;;;;;;;9.75;4.82;;;;;;;13.40;86.12;98078.22;4964182;28;20126;-57
2021/09/24 05:27:34;;;;;;;9.40;5.47;;;;;;;13.28;86.64;98074.44;4945630;28;20043;-57
2021/09/24 05:30:00;;;;;;;10.00;5.30;;;;;;;13.08;87.48;98081.50;4964308;28;20031;-57
2021/09/24 05:32:25;;;;;;;8.73;5.15;;;;;;;13.36;86.32;98082.81;4963184;28;20452;-57
2021/09/24 05:34:50;;;;;;;7.53;4.88;;;;;;;13.67;85.88;98084.69;4964459;28;20972;-57
2021/09/24 05:37:16;;;;;;;11.38;5.50;;;;;;;13.76;85.77;98085.13;4963393;28;20042;-57
2021/09/24 05:39:42;;;;;;;8.70;5.43;;;;;;;13.75;84.65;98086.03;4964589;28;20035;-57
2021/09/24 05:42:08;;;;;;;8.55;5.43;;;;;;;13.97;84.50;98081.38;4963278;28;20043;-57
2021/09/24 05:44:34;;;;;;;9.98;5.22;;;;;;;13.83;84.85;98083.88;4963892;28;20384;-57
2021/09/24 05:46:59;;;;;;;9.70;5.30;;;;;;;13.80;85.22;98073.53;4963124;28;20070;-57
2021/09/24 05:49:29;;;;;;;10.02;5.25;;;;;;;14.03;84.79;98075.78;4964306;28;20058;-57
2021/09/24 05:51:55;;;;;;;7.95;5.47;;;;;;;13.94;85.43;98084.16;4962875;28;20068;-59
2021/09/24 05:54:20;;;;;;;9.45;5.50;;;;;;;14.11;85.19;98085.03;4963956;28;20795;-56
2021/09/24 05:56:46;;;;;;;8.50;4.82;;;;;;;14.27;84.10;98089.34;4945945;28;20035;-58
2021/09/24 05:59:11;;;;;;;8.02;5.00;;;;;;;14.11;85.07;98087.63;4964391;28;20061;-57
2021/09/24 06:01:36;;;;;;;7.90;5.28;;;;;;;14.45;83.09;98087.50;4962950;28;20070;-58
2021/09/24 06:04:02;;;;;;;8.52;5.18;;;;;;;14.58;82.43;98086.84;4963832;28;20122;-58
2021/09/24 06:06:27;;;;;;;11.75;5.72;;;;;;;14.52;82.96;98087.13;4962964;28;20064;-59
2021/09/24 06:08:52;;;;;;;9.43;5.70;;;;;;;14.28;84.15;98082.34;4963809;28;20142;-57
2021/09/24 06:11:19;;;;;;;8.30;5.43;;;;;;;14.75;81.93;98089.34;4945298;28;20733;-58
2021/09/24 06:13:45;;;;;;;8.27;5.10;;;;;;;14.76;82.45;98091.06;4945797;28;20354;-57
2021/09/24 06:16:10;;;;;;;8.80;5.20;;;;;;;14.90;81.79;98084.19;4963336;28;20760;-57
2021/09/24 06:18:35;;;;;;;11.18;5.85;;;;;;;14.38;83.75;98091.38;4963259;28;20026;-57
2021/09/24 06:21:02;;;;;;;13.57;5.78;;;;;;;14.60;83.19;98090.22;4962554;28;20107;-57
2021/09/24 06:23:28;;;;;;;9.63;6.10;;;;;;;14.53;83.20;98096.72;4963314;28;20110;-57
2021/09/24 06:25:54;;;;;;;10.30;5.70;;;;;;;14.58;83.41;98095.56;4941731;28;20760;-57
2021/09/24 06:28:19;;;;;;;9.45;5.00;;;;;;;14.88;81.69;98097.38;4963166;28;20035;-58
2021/09/24 06:30:45;;;;;;;12.23;5.93;;;;;;;14.67;82.40;98103.84;4961961;28;20638;-57
2021/09/24 06:33:10;;;;;;;9.35;5.45;;;;;;;14.80;82.40;98099.63;4963471;28;20026;-57
2021/09/24 06:35:35;;;;;;;11.57;5.68;;;;;;;14.86;81.84;98111.56;4963060;28;20125;-57
2021/09/24 06:38:01;;;;;;;12.32;5.82;;;;;;;14.72;82.75;98110.56;4963285;28;20035;-57
2021/09/24 06:40:26;;;;;;;14.13;6.13;;;;;;;14.78;82.46;98110.19;4962098;28;20045;-58
2021/09/24 06:42:53;;;;;;;11.65;6.03;;;;;;;15.09;80.87;98108.47;4963337;28;20069;-56
2021/09/24 06:45:19;;;;;;;11.05;5.30;;;;;;;15.38;80.14;98108.53;4962272;28;20029;-58
2021/09/24 06:47:44;;;;;;;14.45;6.25;;;;;;;15.07;81.20;98110.34;4962958;28;20022;-56
2021/09/24 06:50:11;;;;;;;9.93;5.72;;;;;;;15.20;81.08;98106.06;4962417;28;20027;-58
2021/09/24 06:52:36;;;;;;;9.00;5.53;;;;;;;15.21;80.77;98112.97;4962891;28;20082;-56
2021/09/24 06:55:02;;;;;;;11.32;5.95;;;;;;;15.23;80.37;98107.66;4962923;28;20846;-58
2021/09/24 06:57:28;;;;;;;9.18;5.63;;;;;;;15.36;80.01;98113.03;4961410;28;20050;-56
2021/09/24 06:59:53;;;;;;;13.77;5.55;;;;;;;15.43;79.91;98114.38;4962830;28;20034;-57
2021/09/24 07:02:18;;;;;;;13.02;5.70;;;;;;;15.17;81.16;98114.09;4961337;28;20468;-56
2021/09/24 07:04:44;;;;;;;10.50;5.55;;;;;;;15.17;81.45;98114.09;4962928;28;20089;-56
2021/09/24 07:07:09;;;;;;;8.90;5.75;;;;;;;15.48;80.08;98120.19;4962100;28;20081;-57
2021/09/24 07:09:35;;;;;;;11.48;6.03;;;;;;;15.24;81.06;98122.50;4962537;28;20039;-56
2021/09/24 07:12:01;;;;;;;14.48;6.28;;;;;;;15.41;79.78;98113.63;4960904;28;20060;-56
2021/09/24 07:14:26;;;;;;;16.27;5.70;;;;;;;15.38;80.11;98122.53;4962569;28;20039;-57
2021/09/24 07:16:52;;;;;;;11.18;5.80;;;;;;;15.61;79.45;98117.69;4961714;28;20053;-56
2021/09/24 07:19:17;;;;;;;11.65;5.85;;;;;;;15.80;78.60;98114.81;4962394;28;20031;-57
2021/09/24 07:21:43;;;;;;;12.68;5.72;;;;;;;15.54;80.06;98121.63;4961613;28;20635;-57
2021/09/24 07:24:09;;;;;;;10.20;5.72;;;;;;;15.93;78.03;98120.19;4962371;28;20023;-56
2021/09/24 07:26:35;;;;;;;9.98;6.13;;;;;;;15.90;78.46;98113.34;4961492;28;20735;-57
2021/09/24 07:29:00;;;;;;;9.32;5.72;;;;;;;15.59;79.03;98112.53;4962311;28;20633;-58
2021/09/24 07:31:26;;;;;;;10.13;5.30;;;;;;;15.90;78.29;98125.63;4961205;28;20038;-58
2021/09/24 07:33:52;;;;;;;8.35;5.10;;;;;;;16.10;77.20;98117.38;4961882;28;20030;-56
2021/09/24 07:36:21;;;;;;;7.97;5.00;;;;;;;16.28;76.59;98120.63;4961657;28;20050;-57
2021/09/24 07:38:48;;;;;;;8.93;5.35;;;;;;;16.31;76.65;98125.72;4962445;28;20034;-57
2021/09/24 07:41:15;;;;;;;9.65;5.63;;;;;;;16.38;76.13;98119.13;4956921;28;20050;-57
2021/09/24 07:43:42;;;;;;;10.35;6.68;;;;;;;16.27;76.56;98113.69;4961468;28;20019;-58
2021/09/24 07:46:17;;;;;;;10.45;5.97;;;;;;;16.33;77.67;98123.00;4961532;28;20038;-58
2021/09/24 07:48:43;;;;;;;8.93;5.78;;;;;;;16.53;75.73;98130.47;4961612;28;20051;-59
2021/09/24 07:51:09;;;;;;;10.30;6.20;;;;;;;16.47;75.90;98122.13;4960773;28;20035;-58
2021/09/24 07:53:35;;;;;;;8.98;5.60;;;;;;;16.99;74.31;98125.88;4943765;28;20030;-56
2021/09/24 07:56:01;;;;;;;10.02;5.88;;;;;;;16.91;74.02;98126.38;4961026;28;20496;-57
2021/09/24 07:58:26;;;;;;;10.70;4.85;;;;;;;17.17;73.45;98129.09;4959311;28;20166;-58
2021/09/24 08:00:51;;;;;;;10.38;5.93;;;;;;;17.25;73.44;98127.63;4957560;28;20065;-57
2021/09/24 08:03:17;;;;;;;9.73;5.45;;;;;;;17.49;72.27;98129.59;4960550;28;20125;-57
2021/09/24 08:05:42;;;;;;;8.55;5.10;;;;;;;17.50;72.18;98131.28;4961079;28;20035;-57
2021/09/24 08:08:08;;;;;;;8.48;4.97;;;;;;;17.96;70.75;98135.22;4961457;28;20317;-57
2021/09/24 08:10:34;;;;;;;7.60;4.82;;;;;;;17.73;71.94;98142.91;4960273;28;20035;-57
2021/09/24 08:12:59;;;;;;;10.45;5.30;;;;;;;17.48;71.67;98136.66;4961120;28;20030;-58
2021/09/24 08:15:25;;;;;;;11.73;5.32;;;;;;;17.63;71.26;98133.94;4961249;28;20436;-58
2021/09/24 08:17:52;;;;;;;9.80;5.05;;;;;;;17.40;72.73;98136.31;4961033;28;20056;-58
2021/09/24 08:20:17;;;;;;;9.65;5.43;;;;;;;17.30;72.69;98138.72;4960477;28;20102;-58
2021/09/24 08:22:43;;;;;;;6.68;4.88;;;;;;;17.43;73.06;98143.19;4960585;28;20092;-58
2021/09/24 08:25:13;;;;;;;8.75;5.43;;;;;;;17.54;72.30;98141.50;4960641;28;20089;-57
2021/09/24 08:27:38;;;;;;;12.32;6.07;;;;;;;17.32;73.14;98144.75;4960273;28;20027;-59
2021/09/24 08:30:07;;;;;;;9.90;4.60;;;;;;;18.00;70.76;98144.66;4960612;28;20093;-57
2021/09/24 08:32:37;;;;;;;9.50;4.65;;;;;;;18.04;70.79;98146.13;4942763;28;20030;-58
2021/09/24 08:35:07;;;;;;;7.32;4.63;;;;;;;18.29;69.84;98146.09;4961285;28;20058;-58
2021/09/24 08:37:32;;;;;;;8.82;5.25;;;;;;;18.14;70.50;98144.53;4960551;28;20169;-58
2021/09/24 08:39:58;;;;;;;12.00;5.13;;;;;;;18.24;69.43;98142.09;4961429;28;20114;-58
2021/09/24 08:42:25;;;;;;;7.32;4.90;;;;;;;18.18;69.56;98142.50;4960226;28;20065;-58
2021/09/24 08:44:51;;;;;;;10.80;5.40;;;;;;;17.92;69.97;98151.31;4961205;28;20110;-58
2021/09/24 08:47:16;;;;;;;11.15;5.78;;;;;;;18.32;69.43;98147.66;4960056;28;20031;-58
2021/09/24 08:49:44;;;;;;;11.20;5.50;;;;;;;18.47;68.44;98149.25;4961276;28;20101;-58
2021/09/24 08:52:09;;;;;;;11.88;5.32;;;;;;;19.07;67.19;98147.56;4959973;28;20051;-55
2021/09/24 08:54:35;;;;;;;7.63;5.35;;;;;;;18.79;67.48;98153.19;4961073;28;20385;-56
2021/09/24 08:57:00;;;;;;;11.70;6.00;;;;;;;18.90;67.42;98150.63;4960161;28;20043;-56
2021/09/24 08:59:26;;;;;;;10.07;5.85;;;;;;;18.76;67.79;98153.38;4960977;28;20027;-57
2021/09/24 09:02:03;;;;;;;9.77;5.70;;;;;;;19.02;66.39;98155.03;4942631;28;20416;-56
2021/09/24 09:04:47;;;;;;;9.00;5.25;;;;;;;19.27;65.68;98154.03;4960806;28;20023;-58
2021/09/24 09:07:15;;;;;;;8.93;5.40;;;;;;;19.04;67.31;98152.25;4959953;28;20039;-57
2021/09/24 09:09:46;;;;;;;10.65;5.82;;;;;;;18.77;67.54;98155.91;4961177;28;20026;-56
2021/09/24 09:12:18;;;;;;;9.88;5.03;;;;;;;19.37;66.02;98154.22;4959234;28;20130;-57
2021/09/24 09:15:17;;;;;;;8.45;5.50;;;;;;;19.12;67.26;98157.84;4960423;28;20057;-56
2021/09/24 09:17:47;;;;;;;10.98;5.13;;;;;;;19.16;67.01;98158.44;4960251;28;20050;-57
2021/09/24 09:20:15;;;;;;;8.35;5.20;;;;;;;19.25;66.59;98157.78;4959962;28;20026;-58
2021/09/24 09:22:44;;;;;;;13.27;5.00;;;;;;;18.95;67.41;98159.06;4963379;28;20039;-57
2021/09/24 09:25:23;;;;;;;8.93;5.05;;;;;;;18.80;68.36;98160.13;4963871;28;20035;-56
2021/09/24 09:27:48;;;;;;;7.35;5.10;;;;;;;18.86;67.46;98165.03;4946399;28;20625;-60
2021/09/24 09:30:14;;;;;;;12.77;5.50;;;;;;;18.26;69.68;98159.50;4963017;28;20137;-58
2021/09/24 09:32:57;;;;;;;11.40;5.30;;;;;;;18.64;69.42;98161.25;4964089;28;20023;-58
2021/09/24 09:35:23;;;;;;;12.32;5.00;;;;;;;18.52;70.33;98162.09;4963922;28;20045;-58
2021/09/24 09:37:49;;;;;;;10.45;5.13;;;;;;;18.48;70.21;98155.38;4963147;28;20026;-58
2021/09/24 09:40:17;;;;;;;8.50;5.47;;;;;;;18.68;69.20;98159.22;4963376;28;20023;-59
2021/09/24 09:42:44;;;;;;;8.65;5.10;;;;;;;18.73;69.38;98154.47;4963861;28;20031;-58
2021/09/24 09:45:13;;;;;;;12.95;5.72;;;;;;;18.75;68.70;98162.25;4963676;28;20037;-58
2021/09/24 09:47:40;;;;;;;10.63;5.25;;;;;;;18.89;68.72;98159.50;4963643;28;20022;-58
2021/09/24 09:50:25;;;;;;;9.98;4.60;;;;;;;18.82;69.98;98153.84;4963117;28;20033;-59
2021/09/24 09:52:58;;;;;;;9.30;5.65;;;;;;;18.68;68.40;98156.59;4946522;28;20046;-60
2021/09/24 09:55:26;;;;;;;8.35;5.28;;;;;;;18.85;68.25;98152.75;4963557;28;20027;-57
2021/09/24 09:57:53;;;;;;;6.88;4.65;;;;;;;19.44;66.65;98151.94;4944614;28;20637;-59
2021/09/24 10:00:19;;;;;;;8.05;5.10;;;;;;;19.23;66.67;98142.00;4963562;28;20261;-58
2021/09/24 10:02:47;;;;;;;13.15;5.53;;;;;;;18.95;67.44;98145.00;4961511;28;20030;-60
2021/09/24 10:05:40;;;;;;;8.43;5.43;;;;;;;19.16;67.12;98145.22;4963627;28;20034;-58
2021/09/24 10:08:41;;;;;;;8.95;5.30;;;;;;;19.68;65.71;98141.31;4963810;28;20042;-59
2021/09/24 10:11:12;;;;;;;11.27;5.93;;;;;;;19.31;66.83;98146.72;4864735;29;20059;-58
2021/09/24 10:13:52;;;;;;;11.05;5.88;;;;;;;19.32;67.08;98150.19;4947517;28;20045;-57
2021/09/24 10:16:20;;;;;;;11.65;5.90;;;;;;;19.94;65.16;98162.31;4962051;28;20050;-56
2021/09/24 10:18:46;;;;;;;12.50;5.88;;;;;;;19.44;66.08;98160.72;4963611;28;20019;-57
2021/09/24 10:21:11;;;;;;;9.55;5.18;;;;;;;19.89;64.62;98161.81;4962520;28;20119;-57
2021/09/24 10:23:37;;;;;;;12.45;5.75;;;;;;;19.83;64.98;98161.38;4963370;28;20091;-56
2021/09/24 10:26:10;;;;;;;9.23;5.32;;;;;;;20.38;63.82;98155.38;4962798;28;20129;-57
2021/09/24 10:28:38;;;;;;;7.43;4.95;;;;;;;20.15;64.40;98163.31;4936490;28;20507;-58
2021/09/24 10:31:04;;;;;;;9.63;4.60;;;;;;;19.97;66.01;98162.09;4961754;28;20038;-57
2021/09/24 10:33:51;;;;;;;8.50;5.00;;;;;;;19.84;65.04;98159.53;4963622;28;20078;-57
2021/09/24 10:36:51;;;;;;;9.77;5.38;;;;;;;20.42;64.62;98156.84;4962524;28;20062;-57
2021/09/24 10:39:28;;;;;;;7.53;4.25;;;;;;;20.64;64.41;98156.00;4962379;28;20030;-56
2021/09/24 10:42:20;;;;;;;7.75;4.85;;;;;;;20.79;62.64;98149.47;4961254;28;20039;-59
2021/09/24 10:44:56;;;;;;;;;;;;;;;20.31;63.25;98146.22;4960638;28;20029;-57
2021/09/24 10:47:49;;;;;;;8.43;4.55;;;;;;;20.82;62.32;98140.41;4959220;28;19925;-58
2021/09/24 10:50:33;;;;;;;14.75;5.05;;;;;;;20.68;63.25;98140.72;4958495;28;20038;-57
2021/09/24 10:53:22;;;;;;;9.32;5.07;;;;;;;20.51;63.49;98129.63;4960184;28;20058;-58
2021/09/24 10:55:53;;;;;;;6.90;4.22;;;;;;;20.73;62.12;98130.56;4961173;28;20097;-56
2021/09/24 10:58:27;;;;;;;9.15;4.38;;;;;;;20.69;62.23;98131.78;4961235;28;20109;-56
2021/09/24 11:01:11;;;;;;;10.65;4.47;;;;;;;20.75;62.06;98125.97;4934268;28;20034;-56
2021/09/24 11:03:57;;;;;;;7.85;4.30;;;;;;;20.70;60.94;98118.41;4963950;28;20042;-56
2021/09/24 11:06:33;;;;;;;8.38;4.20;;;;;;;20.56;61.69;98124.75;4963095;28;20042;-57
2021/09/24 11:09:00;;;;;;;12.18;4.40;;;;;;;21.02;62.15;98117.56;4963702;28;20447;-56
2021/09/24 11:11:31;;;;;;;10.73;4.22;;;;;;;21.15;61.21;98117.41;4951324;28;20360;-57
2021/09/24 11:14:17;;;;;;;12.82;4.20;;;;;;;21.14;64.07;98110.44;4963652;28;20025;-57
2021/09/24 11:16:48;;;;;;;7.43;4.60;;;;;;;21.11;62.56;98113.34;4962304;28;20034;-58
2021/09/24 11:19:40;;;;;;;10.20;4.03;;;;;;;21.55;62.68;98111.47;4963815;28;20034;-57
2021/09/24 11:22:07;;;;;;;;;;;;;;;21.22;61.37;98113.28;4962734;28;20049;-57
2021/09/24 11:24:39;;;;;;;6.35;3.60;;;;;;;21.24;62.05;98116.66;4963361;28;19914;-57
2021/09/24 11:27:06;;;;;;;;;;;;;;;21.47;62.08;98105.97;4959404;28;20039;-56
2021/09/24 11:29:35;;;;;;;7.03;2.97;;;;;;;21.96;61.11;98101.78;4959525;28;20612;-56
2021/09/24 11:32:05;;;;;;;4.90;3.22;;;;;;;21.41;62.00;98101.13;4958405;28;20038;-59
2021/09/24 11:34:43;;;;;;;4.82;3.00;;;;;;;21.59;59.97;98104.09;4960374;28;20455;-60